ADDS METAR Data INFO
IDs: Format: Raw Decoded Include TAF

Data at: 2113 UTC 22 Oct 2017

KHRJ 222105Z AUTO 15003KT 10SM CLR 26/11 A3025 RMK AO2 T02590111
KHRJ 222045Z AUTO 13004KT 10SM CLR 26/11 A3025 RMK AO2 T02640107
KHRJ 222025Z AUTO 15004KT 10SM SCT050 27/11 A3025 RMK AO2 T02660109
KHRJ 222005Z AUTO 10007KT 070V130 10SM BKN050 27/11 A3026 RMK AO2 T02700106
KHRJ 221945Z AUTO 15003KT 10SM BKN050 27/11 A3027 RMK AO2 T02690106
KHRJ 221925Z AUTO 16004KT 10SM BKN050 27/11 A3028 RMK AO2 T02660108
KHRJ 221905Z AUTO 09004KT 10SM BKN050 27/11 A3028 RMK AO2 T02650106
KHRJ 221845Z AUTO 16009KT 10SM SCT050 27/10 A3029 RMK AO2 T02660104
KHRJ 221825Z AUTO 16007KT 10SM SCT050 26/10 A3029 RMK AO2 T02600100
KHRJ 221805Z AUTO 00000KT 10SM SCT050 27/10 A3030 RMK AO2 T02660102
KHRJ 221745Z AUTO 21003KT 10SM CLR 26/10 A3031 RMK AO2 T02570102
KHRJ 221725Z AUTO 00000KT 10SM CLR 26/10 A3032 RMK AO2 T02590104
KHRJ 221705Z AUTO 17003KT 10SM CLR 25/11 A3033 RMK AO2 T02530110
KHRJ 221645Z AUTO 13004KT 10SM CLR 25/11 A3034 RMK AO2 T02480110
KHRJ 221625Z AUTO 11003KT 10SM CLR 24/11 A3035 RMK AO2 T02420112
KHRJ 221605Z AUTO 06003KT 10SM CLR 24/12 A3036 RMK AO2 T02390116
KHRJ 221545Z AUTO 08006KT 10SM CLR 24/11 A3036 RMK AO2 T02410112
KHRJ 221525Z AUTO 08003KT 10SM CLR 23/11 A3036 RMK AO2 T02300113
KHRJ 221505Z AUTO 08003KT 10SM CLR 23/11 A3036 RMK AO2 T02260114 PWINO
KHRJ 221445Z AUTO 10003KT CLR 22/12 A3037 RMK AO2 T02150116 PWINO
KHRJ 221425Z AUTO 09004KT 10SM CLR 20/12 A3036 RMK AO2 T02040115 PWINO
KHRJ 221405Z AUTO 00000KT 10SM CLR 19/12 A3036 RMK AO2 T01850121
KHRJ 221345Z AUTO 00000KT 10SM CLR 17/13 A3037 RMK AO2 T01700130
KHRJ 221325Z AUTO 05003KT 10SM CLR 16/14 A3037 RMK AO2 T01560135
KHRJ 221245Z AUTO 00000KT 10SM CLR 13/12 A3036 RMK AO2 T01260120
KHRJ 221225Z AUTO 00000KT 10SM CLR 13/12 A3036 RMK AO2 T01250119
KHRJ 221205Z AUTO 36003KT 7SM CLR 12/11 A3035 RMK AO2 T01150110
KHRJ 221145Z AUTO 00000KT 7SM CLR 11/11 A3035 RMK AO2 T01120107
KHRJ 221125Z AUTO 00000KT 7SM CLR 12/11 A3034 RMK AO2 T01150111
KHRJ 221105Z AUTO 00000KT 10SM CLR 11/11 A3034 RMK AO2 T01110107
KHRJ 221045Z AUTO 00000KT 10SM CLR 11/11 A3034 RMK AO2 T01100105
KHRJ 221025Z AUTO 36003KT 10SM CLR 11/11 A3033 RMK AO2 T01100105
KHRJ 221005Z AUTO 00000KT 10SM CLR 11/11 A3033 RMK AO2 T01110106
KHRJ 220945Z AUTO 00000KT 10SM CLR 12/11 A3033 RMK AO2 T01150110
KHRJ 220925Z AUTO 00000KT 10SM CLR 12/11 A3033 RMK AO2 T01150110
KHRJ 220905Z AUTO 00000KT 10SM CLR 12/11 A3032 RMK AO2 T01160110
KHRJ 220845Z AUTO 00000KT 10SM CLR 12/11 A3032 RMK AO2 T01200114
KHRJ 220825Z AUTO 00000KT 10SM CLR 12/11 A3032 RMK AO2 T01180112
KHRJ 220805Z AUTO 00000KT 10SM CLR 13/12 A3032 RMK AO2 T01250118
KHRJ 220745Z AUTO 00000KT 10SM CLR 13/12 A3033 RMK AO2 T01250117
KHRJ 220725Z AUTO 00000KT 10SM CLR 13/12 A3032 RMK AO2 T01270120
KHRJ 220705Z AUTO 00000KT 10SM CLR 13/12 A3032 RMK AO2 T01280120
KHRJ 220645Z AUTO 00000KT 10SM CLR 13/12 A3033 RMK AO2 T01300122
KHRJ 220625Z AUTO 00000KT 10SM CLR 13/12 A3032 RMK AO2 T01300121
KHRJ 220605Z AUTO 00000KT 10SM CLR 14/13 A3033 RMK AO2 T01350125
KHRJ 220545Z AUTO 00000KT 10SM CLR 14/13 A3033 RMK AO2 T01370125
KHRJ 220525Z AUTO 00000KT 10SM CLR 14/13 A3033 RMK AO2 T01410126
KHRJ 220505Z AUTO 00000KT 10SM CLR 14/13 A3033 RMK AO2 T01420129
KHRJ 220445Z AUTO 00000KT 10SM CLR 14/13 A3034 RMK AO2 T01410130
KHRJ 220425Z AUTO 00000KT 10SM CLR 14/13 A3033 RMK AO2 T01420130
KHRJ 220405Z AUTO 00000KT 10SM CLR 14/13 A3033 RMK AO2 T01420129
KHRJ 220345Z AUTO 00000KT 10SM CLR 15/12 A3033 RMK AO2 T01470115
KHRJ 220325Z AUTO 00000KT 10SM CLR 15/12 A3034 RMK AO2 T01500115
KHRJ 220305Z AUTO 00000KT 10SM CLR 16/11 A3034 RMK AO2 T01570110
KHRJ 220245Z AUTO 00000KT 10SM CLR 17/11 A3034 RMK AO2 T01720107
KHRJ 220225Z AUTO 09003KT 10SM CLR 17/11 A3034 RMK AO2 T01710107
KHRJ 220205Z AUTO 00000KT 10SM CLR 16/12 A3034 RMK AO2 T01570118
KHRJ 220145Z AUTO 00000KT CLR 16/12 A3033 RMK AO2 T01630116 PWINO
KHRJ 220125Z AUTO 00000KT CLR 17/12 A3033 RMK AO2 T01680117 PWINO
KHRJ 220105Z AUTO 00000KT CLR 18/12 A3033 RMK AO2 T01760117 PWINO
KHRJ 220045Z AUTO 04003KT CLR 18/12 A3033 RMK AO2 T01770121 PWINO
KHRJ 220025Z AUTO 04003KT CLR 18/12 A3033 RMK AO2 T01820120 PWINO
KHRJ 220005Z AUTO 05003KT CLR 19/12 A3033 RMK AO2 T01880122 PWINO
KHRJ 212345Z AUTO 05003KT 10SM CLR 19/12 A3032 RMK AO2 T01940120 PWINO
KHRJ 212325Z AUTO 05003KT 10SM CLR 20/12 A3032 RMK AO2 T01980117
KHRJ 212305Z AUTO 00000KT 10SM CLR 20/12 A3032 RMK AO2 T01980119
KHRJ 212245Z AUTO 00000KT 10SM CLR 21/12 A3032 RMK AO2 T02080115
KHRJ 212225Z AUTO 00000KT 10SM CLR 22/11 A3031 RMK AO2 T02210108
KHRJ 212205Z AUTO 00000KT 10SM CLR 23/10 A3031 RMK AO2 T02270104
KHRJ 212145Z AUTO 00000KT 10SM CLR 25/07 A3031 RMK AO2 T02460073
KHRJ 212125Z AUTO 00000KT 10SM CLR 25/07 A3030 RMK AO2 T02500072
KHRJ 212105Z AUTO 14003KT 10SM CLR 26/06 A3030 RMK AO2 T02560061
KHRJ 212045Z AUTO 15005KT 10SM CLR 26/06 A3030 RMK AO2 T02590063
KHRJ 212025Z AUTO 00000KT CLR 26/06 A3029 RMK AO2 T02590063 PWINO
KHRJ 212005Z AUTO 11003KT CLR 26/06 A3029 RMK AO2 T02610058 PWINO
KHRJ 211945Z AUTO 08005KT CLR 26/06 A3029 RMK AO2 T02610058 PWINO
KHRJ 211925Z AUTO 19004KT 10SM CLR 26/06 A3029 RMK AO2 T02600063
KHRJ 211905Z AUTO 00000KT 10SM CLR 26/06 A3029 RMK AO2 T02590057
KHRJ 211845Z AUTO 20003KT 10SM CLR 26/06 A3029 RMK AO2 T02570059
KHRJ 211825Z AUTO 13003KT 10SM CLR 26/06 A3030 RMK AO2 T02590058
KHRJ 211805Z AUTO 11005KT 10SM CLR 26/07 A3030 RMK AO2 T02550065
KHRJ 211745Z AUTO 21003KT 10SM CLR 25/07 A3031 RMK AO2 T02510065
KHRJ 211725Z AUTO 20004KT 10SM CLR 25/06 A3031 RMK AO2 T02520057
KHRJ 211705Z AUTO 14005KT 10SM CLR 25/07 A3032 RMK AO2 T02480072
KHRJ 211645Z AUTO 14004KT 10SM CLR 25/08 A3033 RMK AO2 T02460075
KHRJ 211625Z AUTO 15005KT 10SM CLR 24/07 A3033 RMK AO2 T02420068
KHRJ 211605Z AUTO 12005KT 10SM CLR 24/10 A3033 RMK AO2 T02370095
KHRJ 211545Z AUTO 00000KT 10SM CLR 24/10 A3034 RMK AO2 T02350103 PWINO
KHRJ 211525Z AUTO 13003KT 10SM CLR 22/10 A3034 RMK AO2 T02210104
KHRJ 211505Z AUTO 00000KT 10SM CLR 22/11 A3034 RMK AO2 T02170105
KHRJ 211445Z AUTO 00000KT 10SM CLR 21/12 A3034 RMK AO2 T02050116
KHRJ 211425Z AUTO 00000KT 10SM CLR 19/11 A3033 RMK AO2 T01900113
KHRJ 211405Z AUTO 00000KT 10SM CLR 18/11 A3033 RMK AO2 T01790113
KHRJ 211345Z AUTO 06003KT 10SM CLR 16/11 A3033 RMK AO2 T01640107
KHRJ 211325Z AUTO 05003KT 10SM CLR 16/11 A3033 RMK AO2 T01560110
KHRJ 211305Z AUTO 00000KT 10SM CLR 14/11 A3033 RMK AO2 T01370111
KHRJ 211245Z AUTO 00000KT 10SM CLR 12/11 A3032 RMK AO2 T01200105
KHRJ 211225Z AUTO 00000KT 10SM CLR 11/10 A3031 RMK AO2 T01060097
KHRJ 211205Z AUTO 00000KT 10SM CLR 10/09 A3031 RMK AO2 T00970091
KHRJ 211145Z AUTO 00000KT 10SM CLR 09/09 A3030 RMK AO2 T00920087
KHRJ 211125Z AUTO 00000KT 10SM CLR 09/09 A3029 RMK AO2 T00920087
KHRJ 211105Z AUTO 00000KT 10SM CLR 09/09 A3029 RMK AO2 T00920086
KHRJ 211045Z AUTO 00000KT 10SM CLR 09/09 A3028 RMK AO2 T00930087
KHRJ 211025Z AUTO 00000KT 10SM CLR 10/09 A3028 RMK AO2 T00950090
KHRJ 211005Z AUTO 00000KT 10SM CLR 09/09 A3027 RMK AO2 T00930088
KHRJ 210945Z AUTO 00000KT 10SM CLR 10/09 A3026 RMK AO2 T00970092
KHRJ 210925Z AUTO 00000KT 10SM CLR 10/09 A3025 RMK AO2 T00970092